Time;durP1;ratioP1;P1;durP2;ratioP2;P2;SDS_P1;SDS_P2;PMS_P1;PMS_P2;Temp;Humidity;BMP_temperature;BMP_pressure;BME280_temperature;BME280_humidity;BME280_pressure;Samples;Min_cycle;Max_cycle;Signal;HPM_P1;HPM_P2
2022/10/31 00:01:32;;;;;;;2.67;1.42;;;19.60;66.80;;;;;;4864656;29;20084;-53
2022/10/31 00:03:59;;;;;;;3.78;0.98;;;19.60;68.50;;;;;;4864030;29;20128;-49
2022/10/31 00:06:26;;;;;;;1.52;0.50;;;19.60;67.70;;;;;;4864244;29;20049;-52
2022/10/31 00:08:55;;;;;;;2.15;0.90;;;19.60;67.80;;;;;;4863905;29;20067;-51
2022/10/31 00:11:23;;;;;;;5.10;1.15;;;19.50;68.50;;;;;;4864015;29;20038;-53
2022/10/31 00:13:50;;;;;;;3.08;0.68;;;19.60;67.30;;;;;;4864322;29;20041;-52
2022/10/31 00:16:21;;;;;;;1.52;0.82;;;19.60;67.10;;;;;;4870394;29;20037;-49
2022/10/31 00:18:52;;;;;;;4.68;1.10;;;19.50;70.10;;;;;;4882115;29;20045;-48
2022/10/31 00:21:19;;;;;;;2.53;0.73;;;19.50;71.20;;;;;;4882505;29;20045;-51
2022/10/31 00:23:47;;;;;;;1.77;0.80;;;19.60;69.70;;;;;;4882771;29;20069;-49
2022/10/31 00:26:14;;;;;;;2.63;0.57;;;19.50;68.70;;;;;;4882658;29;20052;-49
2022/10/31 00:28:41;;;;;;;1.75;0.73;;;19.60;68.50;;;;;;4881928;29;20053;-49
2022/10/31 00:31:11;;;;;;;2.05;0.50;;;19.50;69.60;;;;;;4882624;29;20060;-52
2022/10/31 00:33:39;;;;;;;1.60;0.77;;;19.50;70.50;;;;;;4882420;29;20439;-53
2022/10/31 00:36:10;;;;;;;3.25;0.82;;;19.50;71.90;;;;;;4882333;29;20056;-53
2022/10/31 00:38:38;;;;;;;4.95;0.93;;;19.50;70.70;;;;;;4880632;29;20452;-49
2022/10/31 00:41:05;;;;;;;3.00;0.73;;;19.50;71.20;;;;;;4881978;29;20468;-50
2022/10/31 00:43:31;;;;;;;4.22;0.65;;;19.50;65.80;;;;;;4882022;29;20126;-51
2022/10/31 00:45:58;;;;;;;2.40;0.73;;;19.50;68.70;;;;;;4882055;29;20411;-52
2022/10/31 00:48:25;;;;;;;2.53;0.85;;;19.50;70.10;;;;;;4881630;29;20105;-51
2022/10/31 00:50:52;;;;;;;2.67;1.20;;;19.50;69.30;;;;;;4881288;29;20490;-51
2022/10/31 00:53:19;;;;;;;4.53;1.25;;;19.50;67.00;;;;;;4880559;29;20045;-51
2022/10/31 00:55:46;;;;;;;3.65;1.40;;;19.50;66.20;;;;;;4880474;29;20045;-51
2022/10/31 00:58:14;;;;;;;2.65;0.60;;;19.50;69.80;;;;;;4880526;29;20045;-49
2022/10/31 01:00:54;;;;;;;1.17;0.52;;;19.50;69.40;;;;;;4880434;29;20155;-48
2022/10/31 01:03:24;;;;;;;3.35;0.70;;;19.50;70.00;;;;;;4881862;29;20056;-49
2022/10/31 01:06:05;;;;;;;1.02;0.52;;;19.50;70.00;;;;;;4880543;29;20056;-49
2022/10/31 01:08:33;;;;;;;2.83;0.68;;;19.40;70.60;;;;;;4880824;29;20056;-49
2022/10/31 01:11:02;;;;;;;2.08;0.70;;;19.50;68.30;;;;;;4865158;29;20071;-53
2022/10/31 01:13:29;;;;;;;4.05;0.85;;;19.50;70.10;;;;;;4881705;29;20080;-50
2022/10/31 01:15:59;;;;;;;2.50;0.70;;;19.50;70.10;;;;;;4877982;29;20038;-53
2022/10/31 01:18:27;;;;;;;2.65;0.73;;;19.50;67.10;;;;;;4876987;29;20045;-50
2022/10/31 01:21:11;;;;;;;2.03;1.20;;;19.50;69.00;;;;;;4862880;29;20121;-50
2022/10/31 01:23:39;;;;;;;3.50;0.88;;;19.40;68.90;;;;;;4877168;29;20140;-54
2022/10/31 01:26:10;;;;;;;2.55;0.68;;;19.40;68.00;;;;;;4862734;29;20042;-50
2022/10/31 01:29:09;;;;;;;2.33;0.55;;;19.40;68.20;;;;;;4861136;29;20057;-51
2022/10/31 01:31:39;;;;;;;3.58;0.65;;;19.40;69.40;;;;;;4858219;29;20050;-50
2022/10/31 01:34:06;;;;;;;3.75;0.63;;;19.40;67.90;;;;;;4862603;29;20041;-50
2022/10/31 01:36:37;;;;;;;2.10;0.77;;;19.40;68.00;;;;;;4862755;29;20060;-53
2022/10/31 01:39:11;;;;;;;3.92;1.15;;;19.40;66.30;;;;;;4862220;29;20053;-55
2022/10/31 01:41:41;;;;;;;3.55;0.85;;;19.40;66.10;;;;;;4861113;29;20049;-53
2022/10/31 01:44:14;;;;;;;2.60;0.63;;;19.40;68.10;;;;;;4862610;29;20053;-50
2022/10/31 01:47:06;;;;;;;2.00;0.68;;;19.40;68.50;;;;;;4862199;29;20053;-55
2022/10/31 01:49:43;;;;;;;3.72;0.57;;;19.40;66.60;;;;;;4854799;29;20061;-52
2022/10/31 01:52:18;;;;;;;4.65;1.13;;;19.40;67.40;;;;;;4860870;29;20058;-50
2022/10/31 01:54:51;;;;;;;3.45;0.90;;;19.40;64.70;;;;;;4861452;29;20060;-50
2022/10/31 01:57:20;;;;;;;1.80;0.40;;;19.40;66.50;;;;;;4862554;29;20076;-50
2022/10/31 01:59:55;;;;;;;4.20;0.90;;;19.40;66.70;;;;;;4860470;29;20568;-54
2022/10/31 02:02:22;;;;;;;5.85;0.80;;;19.40;65.90;;;;;;4861860;29;20512;-53
2022/10/31 02:04:50;;;;;;;2.40;0.40;;;19.40;66.10;;;;;;4876064;29;20579;-51
2022/10/31 02:07:23;;;;;;;2.35;1.35;;;19.30;68.70;;;;;;4860669;29;20055;-53
2022/10/31 02:09:53;;;;;;;2.38;1.17;;;19.40;64.70;;;;;;4861780;29;20075;-53
2022/10/31 02:12:20;;;;;;;2.83;0.65;;;19.30;65.20;;;;;;4860607;29;20057;-53
2022/10/31 02:14:47;;;;;;;2.13;0.70;;;19.30;66.80;;;;;;4860661;29;20050;-50
2022/10/31 02:17:14;;;;;;;1.85;0.73;;;19.30;65.90;;;;;;4875480;29;20125;-50
2022/10/31 02:20:00;;;;;;;1.73;0.73;;;19.30;66.90;;;;;;4879876;29;20053;-53
2022/10/31 02:22:45;;;;;;;2.28;1.05;;;19.40;64.20;;;;;;4894741;29;20097;-52
2022/10/31 02:25:30;;;;;;;4.18;0.88;;;19.30;69.00;;;;;;4880671;29;20055;-50
2022/10/31 02:28:25;;;;;;;4.82;0.80;;;19.30;65.60;;;;;;4880401;29;20055;-52
2022/10/31 02:31:19;;;;;;;3.75;0.40;;;19.30;66.60;;;;;;4878779;29;20061;-53
2022/10/31 02:34:15;;;;;;;1.45;0.60;;;19.30;65.00;;;;;;4878828;29;20530;-51
2022/10/31 02:36:57;;;;;;;1.73;0.60;;;19.30;66.50;;;;;;4869110;29;20080;-53
2022/10/31 02:39:33;;;;;;;2.38;0.75;;;19.30;67.20;;;;;;4878860;29;20104;-54
2022/10/31 02:42:22;;;;;;;2.60;0.80;;;19.30;67.70;;;;;;4878803;29;20095;-55
2022/10/31 02:44:56;;;;;;;2.47;0.82;;;19.30;63.50;;;;;;4878890;29;20087;-54
2022/10/31 02:47:32;;;;;;;2.25;0.75;;;19.30;64.70;;;;;;4880044;29;20057;-55
2022/10/31 02:50:11;;;;;;;2.40;0.40;;;19.20;63.70;;;;;;4878374;29;20057;-51
2022/10/31 02:52:38;;;;;;;3.25;0.50;;;19.30;65.10;;;;;;4879606;29;20041;-51
2022/10/31 02:55:12;;;;;;;0.90;0.43;;;19.30;64.60;;;;;;4879654;29;20093;-51
2022/10/31 02:57:42;;;;;;;1.20;0.40;;;19.30;66.10;;;;;;4878529;29;20137;-51
2022/10/31 03:00:10;;;;;;;1.40;0.47;;;19.30;64.30;;;;;;4893843;29;20049;-50
2022/10/31 03:02:56;;;;;;;3.25;0.60;;;19.20;64.60;;;;;;4878383;29;20498;-52
2022/10/31 03:05:37;;;;;;;2.15;0.60;;;19.30;64.40;;;;;;4894084;29;20049;-49
2022/10/31 03:08:28;;;;;;;2.45;0.40;;;19.20;66.30;;;;;;4879728;29;20088;-49
2022/10/31 03:11:09;;;;;;;0.90;0.43;;;19.30;64.20;;;;;;4878473;29;20143;-51
2022/10/31 03:13:54;;;;;;;2.25;0.90;;;19.30;63.90;;;;;;4878157;29;20052;-49
2022/10/31 03:16:53;;;;;;;1.10;0.40;;;19.30;66.50;;;;;;4883585;29;20054;-50
2022/10/31 03:19:29;;;;;;;2.17;0.77;;;19.20;63.30;;;;;;4830111;29;20057;-51
2022/10/31 03:22:18;;;;;;;1.77;0.70;;;19.20;63.30;;;;;;4841239;29;20049;-53
2022/10/31 03:24:48;;;;;;;2.33;0.52;;;19.20;66.50;;;;;;4842116;29;20054;-49
2022/10/31 03:27:21;;;;;;;4.43;0.75;;;19.20;63.50;;;;;;4841373;29;20095;-49
2022/10/31 03:29:50;;;;;;;0.93;0.35;;;19.20;63.60;;;;;;4841171;29;20103;-50
2022/10/31 03:32:23;;;;;;;2.03;1.15;;;19.20;65.40;;;;;;4842213;29;20488;-51
2022/10/31 03:34:55;;;;;;;1.65;0.35;;;19.20;64.30;;;;;;4840983;29;20062;-51
2022/10/31 03:37:25;;;;;;;1.60;0.57;;;19.20;64.20;;;;;;4872108;29;20407;-50
2022/10/31 03:39:55;;;;;;;1.25;0.63;;;19.20;63.80;;;;;;4871694;29;20518;-50
2022/10/31 03:42:29;;;;;;;1.00;0.50;;;19.20;64.80;;;;;;4841141;29;20046;-49
2022/10/31 03:44:59;;;;;;;1.50;0.60;;;19.20;62.40;;;;;;4841052;29;20182;-51
2022/10/31 03:47:27;;;;;;;1.88;0.77;;;19.20;62.80;;;;;;4840958;29;20085;-53
2022/10/31 03:49:54;;;;;;;2.28;1.02;;;19.20;64.30;;;;;;4841043;29;20053;-52
2022/10/31 03:52:42;;;;;;;2.67;0.73;;;19.20;65.00;;;;;;4841150;29;20073;-48
2022/10/31 03:55:29;;;;;;;2.85;0.73;;;19.20;63.90;;;;;;4840860;29;20551;-49
2022/10/31 03:58:02;;;;;;;1.08;0.60;;;19.20;64.10;;;;;;4840903;29;20109;-48
2022/10/31 04:00:32;;;;;;;2.95;0.68;;;19.20;62.70;;;;;;4840592;29;20077;-48
2022/10/31 04:03:34;;;;;;;1.77;0.60;;;19.20;63.70;;;;;;4841087;29;20079;-53
2022/10/31 04:06:06;;;;;;;4.15;1.05;;;19.20;63.60;;;;;;4812084;29;20070;-50
2022/10/31 04:08:45;;;;;;;1.55;0.82;;;19.20;61.80;;;;;;4840425;29;20072;-50
2022/10/31 04:11:19;;;;;;;6.35;1.15;;;19.10;63.00;;;;;;4841120;29;20137;-49
2022/10/31 04:13:57;;;;;;;2.33;0.90;;;19.10;63.00;;;;;;4840974;29;20050;-48
2022/10/31 04:16:26;;;;;;;3.47;1.48;;;19.10;61.60;;;;;;4855892;29;20076;-50
2022/10/31 04:18:54;;;;;;;3.40;1.23;;;19.10;62.60;;;;;;4877429;29;20056;-53
2022/10/31 04:21:27;;;;;;;1.83;0.77;;;19.10;58.40;;;;;;4893191;29;20049;-53
2022/10/31 04:23:54;;;;;;;2.88;1.40;;;19.10;63.50;;;;;;4863576;29;20045;-49
2022/10/31 04:26:25;;;;;;;1.98;0.85;;;19.10;61.70;;;;;;4876030;29;20536;-52
2022/10/31 04:28:51;;;;;;;1.98;0.80;;;19.10;62.70;;;;;;4862490;29;20239;-51
2022/10/31 04:31:18;;;;;;;2.42;0.88;;;19.10;59.00;;;;;;4862299;29;20081;-51
2022/10/31 04:33:47;;;;;;;2.08;0.70;;;19.10;62.60;;;;;;4878080;29;20141;-51
2022/10/31 04:36:14;;;;;;;2.75;1.90;;;19.10;59.00;;;;;;4862722;29;20355;-54
2022/10/31 04:38:42;;;;;;;1.83;0.75;;;19.10;57.10;;;;;;4861995;29;20053;-52
2022/10/31 04:41:24;;;;;;;1.98;0.88;;;19.10;59.10;;;;;;4862270;29;20529;-49
2022/10/31 04:44:01;;;;;;;1.65;0.80;;;19.10;60.40;;;;;;4863728;29;20077;-55
2022/10/31 04:46:27;;;;;;;2.42;0.90;;;19.10;61.20;;;;;;4863405;29;20045;-52
2022/10/31 04:48:56;;;;;;;1.58;1.13;;;19.10;62.30;;;;;;4861739;29;20065;-53
2022/10/31 04:51:23;;;;;;;1.75;1.00;;;19.10;59.80;;;;;;4862043;29;20416;-53
2022/10/31 04:53:51;;;;;;;2.05;0.95;;;19.10;55.80;;;;;;4862006;29;20073;-48
2022/10/31 04:56:37;;;;;;;1.90;0.68;;;19.10;57.80;;;;;;4863090;29;20465;-52
2022/10/31 04:59:11;;;;;;;;;;;19.10;56.90;;;;;;4862258;29;20473;-52
2022/10/31 05:01:46;;;;;;;1.65;0.57;;;19.10;58.30;;;;;;4847886;29;20302;-51
2022/10/31 05:04:13;;;;;;;2.70;0.90;;;19.00;59.00;;;;;;4861867;29;20053;-52
2022/10/31 05:06:41;;;;;;;1.25;0.73;;;19.00;57.20;;;;;;4861576;29;20049;-53
2022/10/31 05:09:08;;;;;;;4.10;1.48;;;19.00;55.50;;;;;;4861630;29;20056;-49
2022/10/31 05:11:34;;;;;;;1.80;1.13;;;19.00;58.90;;;;;;4862777;29;20062;-51
2022/10/31 05:14:16;;;;;;;2.15;1.10;;;19.00;60.10;;;;;;4857615;29;20049;-50
2022/10/31 05:17:01;;;;;;;4.18;1.30;;;19.00;57.70;;;;;;4861631;29;20061;-51
2022/10/31 05:19:47;;;;;;;2.22;1.00;;;19.00;59.00;;;;;;4862473;29;20523;-53
2022/10/31 05:22:34;;;;;;;4.43;1.25;;;19.00;56.50;;;;;;4862366;29;20136;-53
2022/10/31 05:25:01;;;;;;;3.72;1.80;;;19.00;54.70;;;;;;4862862;29;20496;-55
2022/10/31 05:27:28;;;;;;;4.22;2.60;;;19.00;50.70;;;;;;4862802;29;20050;-49
2022/10/31 05:29:55;;;;;;;4.85;2.40;;;19.00;46.10;;;;;;4862249;29;20069;-52
2022/10/31 05:32:22;;;;;;;4.90;2.17;;;19.00;40.40;;;;;;4861086;29;20053;-47
2022/10/31 05:35:21;;;;;;;2.95;1.67;;;19.00;45.00;;;;;;4847885;29;20507;-50
2022/10/31 05:38:09;;;;;;;3.60;2.10;;;18.90;40.90;;;;;;4861115;29;20487;-50
2022/10/31 05:40:36;;;;;;;4.82;2.25;;;18.90;41.80;;;;;;4860898;29;20056;-50
2022/10/31 05:43:03;;;;;;;3.65;1.50;;;18.90;44.80;;;;;;4861204;29;20049;-53
2022/10/31 05:45:30;;;;;;;5.43;1.90;;;18.90;41.40;;;;;;4861140;29;20136;-53
2022/10/31 05:48:01;;;;;;;5.18;1.85;;;18.90;43.90;;;;;;4861259;29;20503;-50
2022/10/31 05:50:52;;;;;;;3.78;1.70;;;18.90;43.50;;;;;;4862093;29;20053;-50
2022/10/31 05:53:19;;;;;;;3.85;2.13;;;18.90;43.70;;;;;;4861008;29;20049;-49
2022/10/31 05:55:47;;;;;;;3.88;1.92;;;18.90;41.60;;;;;;4863046;29;20045;-57
2022/10/31 05:58:20;;;;;;;8.82;2.78;;;18.90;44.70;;;;;;4860557;29;20042;-54
2022/10/31 06:00:53;;;;;;;3.65;2.13;;;18.90;43.50;;;;;;4858883;29;20140;-52
2022/10/31 06:03:20;;;;;;;6.13;2.08;;;18.80;44.40;;;;;;4860785;29;20080;-50
2022/10/31 06:05:50;;;;;;;3.55;1.83;;;18.90;43.90;;;;;;4860728;29;20052;-52
2022/10/31 06:08:24;;;;;;;4.03;1.80;;;18.80;43.80;;;;;;4861904;29;20061;-49
2022/10/31 06:10:53;;;;;;;4.40;1.90;;;18.80;46.20;;;;;;4860696;29;20113;-47
2022/10/31 06:13:32;;;;;;;3.83;1.50;;;18.80;42.90;;;;;;4860674;29;20504;-53
2022/10/31 06:16:09;;;;;;;3.38;1.55;;;18.80;45.80;;;;;;4866004;29;20518;-51
2022/10/31 06:18:38;;;;;;;1.70;1.08;;;18.80;47.60;;;;;;4878810;29;20109;-52
2022/10/31 06:21:05;;;;;;;2.60;1.63;;;18.80;45.40;;;;;;4879363;29;20562;-54
2022/10/31 06:23:31;;;;;;;2.35;1.40;;;18.80;45.80;;;;;;4880233;29;20049;-52
2022/10/31 06:26:18;;;;;;;4.53;1.55;;;18.80;46.30;;;;;;4880227;29;20053;-53
2022/10/31 06:28:46;;;;;;;2.97;1.60;;;18.80;46.10;;;;;;4878575;29;20053;-53
2022/10/31 06:31:25;;;;;;;2.92;1.70;;;18.80;44.90;;;;;;4894599;29;20053;-52
2022/10/31 06:33:52;;;;;;;2.45;1.10;;;18.80;47.00;;;;;;4878217;29;20041;-50
2022/10/31 06:36:19;;;;;;;2.28;1.48;;;18.80;46.50;;;;;;4892846;29;20071;-52
2022/10/31 06:38:46;;;;;;;3.55;1.65;;;18.80;46.50;;;;;;4890102;29;20059;-52
2022/10/31 06:41:16;;;;;;;2.03;1.10;;;18.80;48.40;;;;;;4875659;29;20064;-49
2022/10/31 06:43:47;;;;;;;3.47;1.45;;;18.80;48.70;;;;;;4879880;29;20052;-53
2022/10/31 06:46:48;;;;;;;2.83;1.42;;;18.80;47.50;;;;;;4879601;29;20052;-50
2022/10/31 06:49:40;;;;;;;3.03;1.40;;;18.80;48.70;;;;;;4893196;29;20104;-48
2022/10/31 06:52:16;;;;;;;1.75;1.30;;;18.80;46.40;;;;;;4879344;29;20452;-48
2022/10/31 06:54:43;;;;;;;2.83;1.33;;;18.80;48.00;;;;;;4879474;29;20047;-52
2022/10/31 06:57:09;;;;;;;3.03;1.45;;;18.80;46.70;;;;;;4880390;29;20049;-46
2022/10/31 06:59:38;;;;;;;2.38;1.40;;;18.70;47.60;;;;;;4878284;29;20045;-52
2022/10/31 07:02:34;;;;;;;3.20;1.52;;;18.70;48.80;;;;;;4875995;29;20052;-51
2022/10/31 07:05:04;;;;;;;4.78;1.48;;;18.70;46.40;;;;;;4894039;29;20419;-48
2022/10/31 07:07:32;;;;;;;3.35;1.63;;;18.70;48.10;;;;;;4879868;29;20053;-46
2022/10/31 07:09:59;;;;;;;3.13;1.35;;;18.70;46.80;;;;;;4877896;29;20101;-50
2022/10/31 07:12:53;;;;;;;4.55;1.70;;;18.70;47.40;;;;;;4869269;29;20065;-48
2022/10/31 07:15:20;;;;;;;3.00;1.10;;;18.70;46.50;;;;;;4878157;29;20073;-50
2022/10/31 07:17:47;;;;;;;2.28;1.42;;;18.70;47.80;;;;;;4860459;29;20057;-50
2022/10/31 07:20:14;;;;;;;1.90;1.25;;;18.70;46.40;;;;;;4859542;29;20056;-50
2022/10/31 07:22:41;;;;;;;3.53;1.23;;;18.70;46.50;;;;;;4859697;29;20053;-50
2022/10/31 07:25:14;;;;;;;5.50;1.73;;;18.70;45.50;;;;;;4859769;29;20053;-54
2022/10/31 07:28:04;;;;;;;2.33;1.40;;;18.70;46.10;;;;;;4851331;29;20057;-51
2022/10/31 07:30:31;;;;;;;3.17;1.70;;;18.70;44.50;;;;;;4859129;29;20514;-53
2022/10/31 07:32:58;;;;;;;6.22;1.45;;;18.70;47.60;;;;;;4874902;29;20590;-50
2022/10/31 07:35:45;;;;;;;4.55;1.88;;;18.70;50.30;;;;;;4859427;29;20063;-49
2022/10/31 07:38:14;;;;;;;3.05;1.13;;;18.70;45.50;;;;;;4860060;29;20088;-49
2022/10/31 07:40:43;;;;;;;2.47;1.52;;;18.70;46.60;;;;;;4874616;29;20041;-54
2022/10/31 07:43:12;;;;;;;2.72;1.17;;;18.70;45.40;;;;;;4859502;29;20109;-49
2022/10/31 07:45:57;;;;;;;2.55;1.48;;;18.70;47.10;;;;;;4859475;29;20129;-52
2022/10/31 07:48:37;;;;;;;2.72;1.30;;;18.70;46.20;;;;;;4860801;29;20057;-51
2022/10/31 07:51:23;;;;;;;1.60;1.00;;;18.70;45.30;;;;;;4860520;29;20064;-51
2022/10/31 07:54:10;;;;;;;2.65;1.35;;;18.60;48.00;;;;;;4853502;29;20412;-52
2022/10/31 07:56:37;;;;;;;3.53;1.35;;;18.60;46.00;;;;;;4874759;29;20081;-48
2022/10/31 07:59:05;;;;;;;3.03;1.73;;;18.60;46.80;;;;;;4859132;29;20136;-50
2022/10/31 08:01:32;;;;;;;2.00;1.50;;;18.60;47.00;;;;;;4860423;29;20054;-54
2022/10/31 08:04:21;;;;;;;2.17;1.05;;;18.70;48.10;;;;;;4863849;29;20058;-51
2022/10/31 08:07:06;;;;;;;2.08;1.13;;;18.60;46.70;;;;;;4864211;29;20065;-50
2022/10/31 08:09:36;;;;;;;3.10;1.55;;;18.60;49.20;;;;;;4862552;29;20049;-49
2022/10/31 08:12:14;;;;;;;2.30;1.30;;;18.70;48.60;;;;;;4862919;29;20046;-52
2022/10/31 08:14:41;;;;;;;3.58;1.30;;;18.60;49.10;;;;;;4862393;29;20412;-49
2022/10/31 08:17:07;;;;;;;4.55;1.77;;;18.60;48.10;;;;;;4881303;29;20040;-49
2022/10/31 08:19:43;;;;;;;2.63;1.40;;;18.60;49.80;;;;;;4880783;29;20083;-51
2022/10/31 08:22:13;;;;;;;1.92;1.52;;;18.60;46.80;;;;;;4881266;29;20067;-53
2022/10/31 08:24:40;;;;;;;2.85;1.35;;;18.60;47.00;;;;;;4880983;29;20135;-51
2022/10/31 08:27:07;;;;;;;3.80;1.67;;;18.70;48.10;;;;;;4881111;29;20493;-52
2022/10/31 08:29:34;;;;;;;2.33;1.60;;;18.70;49.40;;;;;;4880481;29;20083;-53
2022/10/31 08:32:01;;;;;;;2.33;1.27;;;18.60;50.60;;;;;;4880924;29;20140;-52
2022/10/31 08:34:46;;;;;;;3.42;1.70;;;18.60;50.30;;;;;;4881905;29;20525;-54
2022/10/31 08:37:31;;;;;;;3.65;1.67;;;18.70;52.10;;;;;;4882590;29;20056;-54
2022/10/31 08:40:02;;;;;;;4.60;1.70;;;18.60;52.10;;;;;;4880506;29;20422;-52
2022/10/31 08:42:33;;;;;;;2.83;1.42;;;18.70;52.50;;;;;;4881350;29;20049;-48
2022/10/31 08:45:00;;;;;;;6.50;1.52;;;18.70;53.60;;;;;;4880933;29;20159;-54
2022/10/31 08:47:28;;;;;;;3.63;1.17;;;18.70;52.80;;;;;;4882203;29;20053;-48
2022/10/31 08:49:55;;;;;;;2.80;1.48;;;18.70;51.20;;;;;;4880292;29;20141;-52
2022/10/31 08:52:25;;;;;;;1.77;1.13;;;18.70;52.50;;;;;;4880749;29;20059;-53
2022/10/31 08:55:11;;;;;;;2.40;1.30;;;18.60;55.30;;;;;;4896026;29;20518;-48
2022/10/31 08:57:58;;;;;;;3.13;1.45;;;18.60;52.10;;;;;;4881763;29;20205;-51
2022/10/31 09:00:35;;;;;;;2.65;1.30;;;18.70;53.80;;;;;;4880242;29;20049;-55
2022/10/31 09:03:12;;;;;;;3.45;1.80;;;18.70;55.40;;;;;;4880396;29;20460;-48
2022/10/31 09:05:42;;;;;;;2.55;1.23;;;18.70;53.90;;;;;;4880496;29;20932;-47
2022/10/31 09:08:12;;;;;;;5.55;1.63;;;18.70;56.80;;;;;;4880200;29;20045;-52
2022/10/31 09:10:45;;;;;;;3.47;1.17;;;18.70;57.60;;;;;;4880044;29;20476;-53
2022/10/31 09:13:17;;;;;;;2.63;1.38;;;18.70;57.70;;;;;;4879715;29;20141;-49
2022/10/31 09:16:04;;;;;;;1.88;1.13;;;18.70;56.30;;;;;;4876570;29;20457;-51
2022/10/31 09:18:33;;;;;;;2.45;1.33;;;18.70;58.10;;;;;;4861242;29;20052;-50
2022/10/31 09:21:00;;;;;;;2.88;1.52;;;18.80;58.70;;;;;;4861312;29;20045;-49
2022/10/31 09:23:30;;;;;;;3.03;1.77;;;18.80;59.60;;;;;;4861463;29;20049;-49
2022/10/31 09:26:01;;;;;;;2.53;1.63;;;18.80;61.80;;;;;;4861642;29;20136;-55
2022/10/31 09:28:39;;;;;;;3.28;1.50;;;18.80;62.70;;;;;;4861085;29;20057;-53
2022/10/31 09:31:11;;;;;;;2.05;1.30;;;18.80;63.10;;;;;;4876523;29;20060;-49
2022/10/31 09:33:54;;;;;;;1.60;1.30;;;18.80;62.60;;;;;;4861559;29;20053;-54
2022/10/31 09:36:37;;;;;;;3.67;1.45;;;18.80;60.30;;;;;;4862995;29;20492;-51
2022/10/31 09:39:07;;;;;;;2.75;1.70;;;18.90;61.90;;;;;;4861214;29;20101;-50
2022/10/31 09:41:58;;;;;;;4.53;1.52;;;18.90;62.00;;;;;;4860959;29;20045;-48
2022/10/31 09:44:33;;;;;;;6.40;1.40;;;18.90;63.00;;;;;;4861270;29;20516;-47
2022/10/31 09:47:17;;;;;;;1.83;1.13;;;18.90;64.00;;;;;;4876610;29;20050;-46
2022/10/31 09:50:17;;;;;;;3.65;1.30;;;19.00;63.60;;;;;;4860618;29;20145;-48
2022/10/31 09:52:58;;;;;;;3.15;1.15;;;19.00;63.90;;;;;;4860860;29;20054;-52
2022/10/31 09:55:31;;;;;;;5.18;2.13;;;19.00;64.00;;;;;;4860714;29;20045;-49
2022/10/31 09:57:59;;;;;;;3.08;1.27;;;19.10;65.70;;;;;;4876456;29;20084;-53
2022/10/31 10:00:26;;;;;;;2.67;1.50;;;19.10;64.50;;;;;;4875878;29;20492;-51
2022/10/31 10:03:14;;;;;;;2.20;1.40;;;19.10;62.50;;;;;;4861858;29;20046;-47
2022/10/31 10:05:56;;;;;;;3.63;1.48;;;19.10;63.90;;;;;;4860787;29;20065;-52
2022/10/31 10:08:37;;;;;;;2.25;1.38;;;19.10;64.10;;;;;;4875877;29;20911;-55
2022/10/31 10:11:28;;;;;;;3.97;1.65;;;19.10;65.30;;;;;;4861847;29;20056;-50
2022/10/31 10:14:30;;;;;;;2.30;1.25;;;19.10;65.60;;;;;;4862284;29;20049;-50
2022/10/31 10:17:11;;;;;;;1.90;1.02;;;19.20;66.00;;;;;;4873119;29;20045;-54
2022/10/31 10:19:41;;;;;;;2.88;1.73;;;19.20;65.10;;;;;;4879995;29;20045;-53
2022/10/31 10:22:18;;;;;;;2.83;1.65;;;19.20;63.20;;;;;;4880320;29;20041;-55
2022/10/31 10:24:53;;;;;;;3.58;1.30;;;19.20;64.50;;;;;;4879608;29;20044;-52
2022/10/31 10:28:00;;;;;;;3.38;1.67;;;19.30;64.40;;;;;;4880207;29;20072;-53
2022/10/31 10:30:49;;;;;;;5.60;1.40;;;19.30;64.30;;;;;;4879741;29;20462;-52
2022/10/31 10:33:22;;;;;;;2.63;1.30;;;19.30;63.80;;;;;;4880066;29;20487;-52
2022/10/31 10:35:57;;;;;;;3.10;1.27;;;19.30;61.80;;;;;;4879937;29;20074;-52
2022/10/31 10:38:46;;;;;;;2.78;1.70;;;19.30;64.70;;;;;;4879529;29;20056;-50
2022/10/31 10:41:17;;;;;;;3.42;1.50;;;19.30;64.70;;;;;;4880193;29;20048;-51
2022/10/31 10:43:44;;;;;;;4.53;1.50;;;19.30;63.80;;;;;;4879901;29;20126;-52
2022/10/31 10:49:36;;;;;;;2.20;1.50;;;19.30;63.10;;;;;;4879527;29;20514;-51
2022/10/31 10:52:15;;;;;;;1.38;1.20;;;19.40;64.10;;;;;;4879782;29;20079;-53
2022/10/31 10:55:30;;;;;;;1.67;1.15;;;19.40;61.10;;;;;;4879551;29;20045;-51
2022/10/31 10:58:04;;;;;;;2.17;1.13;;;19.40;61.80;;;;;;4879738;29;20052;-51
2022/10/31 11:00:42;;;;;;;1.75;1.10;;;19.40;62.70;;;;;;4879538;29;20123;-50
2022/10/31 11:03:10;;;;;;;1.73;1.27;;;19.40;61.50;;;;;;4880026;29;20049;-51
2022/10/31 11:05:50;;;;;;;2.67;1.45;;;19.40;60.60;;;;;;4879657;29;20056;-53
2022/10/31 11:08:24;;;;;;;2.65;1.70;;;19.40;63.00;;;;;;4879422;29;20124;-53
2022/10/31 11:11:06;;;;;;;2.28;1.20;;;19.40;63.20;;;;;;4879322;29;20049;-52
2022/10/31 11:13:34;;;;;;;3.15;1.27;;;19.40;62.90;;;;;;4879869;29;20049;-51
2022/10/31 11:16:06;;;;;;;3.30;1.50;;;19.50;62.50;;;;;;4875104;29;20065;-51
2022/10/31 11:18:43;;;;;;;2.20;0.97;;;19.50;61.40;;;;;;4860508;29;20072;-53
2022/10/31 11:21:29;;;;;;;2.55;1.20;;;19.50;61.90;;;;;;4860869;29;20041;-52
2022/10/31 11:24:04;;;;;;;2.08;1.38;;;19.50;58.10;;;;;;4860696;29;20038;-53
2022/10/31 11:26:31;;;;;;;4.07;1.50;;;19.50;60.10;;;;;;4860838;29;20051;-51
2022/10/31 11:28:58;;;;;;;1.50;1.17;;;19.50;60.90;;;;;;4860711;29;20132;-54
2022/10/31 11:31:27;;;;;;;2.97;1.70;;;19.50;61.90;;;;;;4860615;29;20053;-52
2022/10/31 11:34:00;;;;;;;2.03;1.35;;;19.50;60.00;;;;;;4860889;29;20128;-51
2022/10/31 11:36:37;;;;;;;4.07;1.48;;;19.50;58.30;;;;;;4863774;29;20049;-53
2022/10/31 11:39:14;;;;;;;4.88;1.63;;;19.50;58.70;;;;;;4864585;29;20053;-50
2022/10/31 11:41:42;;;;;;;2.40;1.52;;;19.50;59.40;;;;;;4864553;29;20065;-51
2022/10/31 11:44:16;;;;;;;4.32;1.30;;;19.50;61.50;;;;;;4864397;29;20054;-50
2022/10/31 11:46:50;;;;;;;4.85;1.20;;;19.50;60.20;;;;;;4864508;29;20102;-51
2022/10/31 11:49:34;;;;;;;2.20;1.40;;;19.50;58.90;;;;;;4864118;29;20053;-53
2022/10/31 11:52:12;;;;;;;1.85;1.33;;;19.50;58.00;;;;;;4862995;29;20081;-49
2022/10/31 11:54:46;;;;;;;3.33;0.93;;;19.50;59.80;;;;;;4864042;29;20052;-54
2022/10/31 11:57:27;;;;;;;1.65;0.98;;;19.50;58.00;;;;;;4864116;29;20056;-53
2022/10/31 11:59:59;;;;;;;2.75;1.58;;;19.50;56.30;;;;;;4863986;29;20046;-48
2022/10/31 12:02:26;;;;;;;3.45;1.63;;;19.50;57.40;;;;;;4864347;29;20041;-52
2022/10/31 12:05:11;;;;;;;2.00;0.90;;;19.50;57.40;;;;;;4864137;29;20120;-53
2022/10/31 12:07:38;;;;;;;3.47;1.60;;;19.50;54.90;;;;;;4864178;29;20084;-53
2022/10/31 12:10:12;;;;;;;2.05;1.30;;;19.50;57.60;;;;;;4863570;29;20057;-53
2022/10/31 12:12:48;;;;;;;3.35;1.42;;;19.50;55.50;;;;;;4864169;29;20412;-54
2022/10/31 12:15:29;;;;;;;3.60;1.58;;;19.50;56.10;;;;;;4863899;29;20049;-52
2022/10/31 12:18:14;;;;;;;3.55;1.60;;;19.50;55.50;;;;;;4845835;29;20095;-53
2022/10/31 12:20:56;;;;;;;2.00;1.17;;;19.50;58.10;;;;;;4845228;29;20053;-50
2022/10/31 12:23:57;;;;;;;3.45;1.52;;;19.50;56.70;;;;;;4845620;29;20046;-52
2022/10/31 12:26:40;;;;;;;3.13;1.17;;;19.40;57.60;;;;;;4845243;29;20057;-49
2022/10/31 12:29:34;;;;;;;2.03;1.45;;;19.50;55.40;;;;;;4845132;29;20500;-56
2022/10/31 12:32:43;;;;;;;3.22;1.80;;;19.40;55.40;;;;;;4844979;29;20166;-53
2022/10/31 12:35:51;;;;;;;3.78;1.77;;;19.40;53.00;;;;;;4819385;29;20094;-53
2022/10/31 12:38:43;;;;;;;1.52;1.27;;;19.40;57.10;;;;;;4818243;29;20054;-51
2022/10/31 12:41:51;;;;;;;2.47;1.27;;;19.40;56.30;;;;;;4844948;29;20046;-55
2022/10/31 12:44:36;;;;;;;2.25;1.60;;;19.40;52.20;;;;;;4845243;29;20045;-53
2022/10/31 12:47:15;;;;;;;3.60;1.35;;;19.40;54.80;;;;;;4843956;29;20523;-50
2022/10/31 12:50:10;;;;;;;2.20;1.20;;;19.40;56.10;;;;;;4844684;29;20050;-52
2022/10/31 12:52:50;;;;;;;3.70;1.23;;;19.40;52.40;;;;;;4821380;29;20060;-48
2022/10/31 12:55:38;;;;;;;3.05;1.27;;;19.40;53.60;;;;;;4844500;29;20137;-52
2022/10/31 12:58:34;;;;;;;2.08;1.27;;;19.40;51.90;;;;;;4844678;29;20061;-52
2022/10/31 13:01:13;;;;;;;1.73;1.13;;;19.40;55.60;;;;;;4844983;29;20403;-52
2022/10/31 13:04:14;;;;;;;3.08;2.10;;;19.40;50.80;;;;;;4844631;29;20049;-50
2022/10/31 13:07:03;;;;;;;1.77;1.05;;;19.40;53.30;;;;;;4844747;29;20050;-54
2022/10/31 13:09:58;;;;;;;2.72;1.48;;;19.40;52.00;;;;;;4844337;29;20519;-53
2022/10/31 13:12:27;;;;;;;4.28;1.27;;;19.30;51.30;;;;;;4839230;29;20081;-51
2022/10/31 13:15:06;;;;;;;2.63;1.40;;;19.40;54.70;;;;;;4844340;29;20046;-52
2022/10/31 13:17:42;;;;;;;3.60;1.10;;;19.40;49.50;;;;;;4876426;29;20049;-54
2022/10/31 13:20:29;;;;;;;3.15;1.45;;;19.30;52.50;;;;;;4880963;29;20053;-50
2022/10/31 13:23:05;;;;;;;2.53;1.20;;;19.40;53.00;;;;;;4881348;29;20051;-47
2022/10/31 13:25:53;;;;;;;3.45;1.10;;;19.40;53.80;;;;;;4881390;29;20120;-53
2022/10/31 13:28:40;;;;;;;3.67;1.75;;;19.40;50.40;;;;;;4881278;29;20113;-51
2022/10/31 13:31:07;;;;;;;2.83;1.17;;;19.40;52.90;;;;;;4881126;29;20053;-50
2022/10/31 13:33:49;;;;;;;2.00;1.45;;;19.40;55.70;;;;;;4881768;29;20064;-52
2022/10/31 13:36:36;;;;;;;1.67;0.98;;;19.40;52.60;;;;;;4881471;29;20045;-49